createdAt,value
2022-09-12T00:00:05.686Z,20.60
2022-09-12T00:05:13.970Z,20.60
2022-09-12T00:10:17.558Z,20.60
2022-09-12T00:15:20.008Z,20.60
2022-09-12T00:20:22.345Z,20.60
2022-09-12T00:25:24.740Z,20.50
2022-09-12T00:30:27.338Z,20.50
2022-09-12T00:35:29.714Z,20.60
2022-09-12T00:40:32.130Z,20.50
2022-09-12T00:45:34.868Z,20.50
2022-09-12T00:50:37.474Z,20.50
2022-09-12T00:55:43.868Z,20.50
2022-09-12T01:00:47.650Z,20.50
2022-09-12T01:06:18.248Z,20.50
2022-09-12T01:11:22.029Z,20.50
2022-09-12T01:16:24.438Z,20.50
2022-09-12T01:21:40.343Z,20.50
2022-09-12T01:27:08.506Z,20.50
2022-09-12T01:32:22.918Z,20.50
2022-09-12T01:37:57.578Z,20.50
2022-09-12T01:43:12.289Z,20.50
2022-09-12T01:48:22.813Z,20.50
2022-09-12T01:53:34.311Z,20.40
2022-09-12T01:58:45.850Z,20.40
2022-09-12T02:03:58.412Z,20.50
2022-09-12T02:09:06.673Z,20.40
2022-09-12T02:14:14.201Z,20.40
2022-09-12T02:19:20.108Z,20.40
2022-09-12T02:24:25.820Z,20.40
2022-09-12T02:29:28.327Z,20.40
2022-09-12T02:35:03.325Z,20.40
2022-09-12T02:40:09.043Z,20.40
2022-09-12T02:45:12.615Z,20.40
2022-09-12T02:50:15.236Z,20.40
2022-09-12T02:55:17.984Z,20.40
2022-09-12T03:00:20.725Z,20.40
2022-09-12T03:05:57.142Z,20.40
2022-09-12T03:11:08.411Z,20.40
2022-09-12T03:16:39.986Z,20.40
2022-09-12T03:22:14.029Z,20.40
2022-09-12T03:27:28.465Z,20.40
2022-09-12T03:32:49.673Z,20.30
2022-09-12T03:37:53.168Z,20.40
2022-09-12T03:42:55.651Z,20.40
2022-09-12T03:48:00.794Z,20.40
2022-09-12T03:53:03.574Z,20.40
2022-09-12T03:58:06.014Z,20.40
2022-09-12T04:03:09.262Z,20.50
2022-09-12T04:08:11.583Z,20.40
2022-09-12T04:13:14.017Z,20.40
2022-09-12T04:18:16.439Z,20.40
2022-09-12T04:23:19.529Z,20.50
2022-09-12T04:28:22.361Z,20.50
2022-09-12T04:33:24.825Z,20.50
2022-09-12T04:38:27.409Z,20.50
2022-09-12T04:43:29.824Z,20.50
2022-09-12T04:48:32.263Z,20.50
2022-09-12T04:53:34.798Z,20.50
2022-09-12T04:58:38.350Z,20.50
2022-09-12T05:03:45.354Z,20.50
2022-09-12T05:08:48.351Z,19.10
2022-09-12T05:13:50.929Z,19.40
2022-09-12T05:18:53.906Z,19.50
2022-09-12T05:23:59.627Z,19.80
2022-09-12T05:29:04.673Z,20.20
2022-09-12T05:34:09.330Z,19.30
2022-09-12T05:39:12.110Z,13.00
2022-09-12T05:44:14.818Z,12.40
2022-09-12T05:49:17.372Z,12.40
2022-09-12T05:54:20.800Z,12.70
2022-09-12T05:59:24.214Z,16.10
2022-09-12T06:04:28.090Z,18.00
2022-09-12T06:09:30.586Z,18.80
2022-09-12T06:14:33.366Z,19.00
2022-09-12T06:19:35.774Z,18.40
2022-09-12T06:24:38.405Z,19.30
2022-09-12T06:29:41.946Z,19.50
2022-09-12T06:34:47.350Z,20.10
2022-09-12T06:39:49.752Z,19.70
2022-09-12T06:44:52.243Z,20.30
2022-09-12T06:49:54.785Z,20.40
2022-09-12T06:54:57.229Z,20.60
2022-09-12T07:00:00.122Z,21.20
2022-09-12T07:05:02.651Z,21.30
2022-09-12T07:10:06.851Z,21.20
2022-09-12T07:15:10.763Z,21.80
2022-09-12T07:20:13.359Z,21.60
2022-09-12T07:25:15.749Z,21.80
2022-09-12T07:30:18.431Z,22.10
2022-09-12T07:35:21.659Z,22.10
2022-09-12T07:40:24.088Z,21.80
2022-09-12T07:45:27.035Z,21.90
2022-09-12T07:50:29.615Z,21.80
2022-09-12T07:55:32.929Z,21.70
2022-09-12T08:00:36.490Z,21.30
2022-09-12T08:05:38.878Z,21.80
2022-09-12T08:10:41.353Z,22.20
2022-09-12T08:15:43.731Z,22.40
2022-09-12T08:20:46.099Z,21.90
2022-09-12T08:25:48.590Z,22.30
2022-09-12T08:30:51.312Z,21.00
2022-09-12T08:35:53.756Z,22.00
2022-09-12T08:41:05.299Z,21.40
2022-09-12T08:46:45.289Z,21.50
2022-09-12T08:51:47.853Z,21.90
2022-09-12T08:56:51.332Z,22.40
2022-09-12T09:01:59.974Z,22.20
2022-09-12T09:07:18.451Z,21.80
2022-09-12T09:12:44.134Z,21.40
2022-09-12T09:17:51.922Z,21.70
2022-09-12T09:23:16.165Z,22.10
2022-09-12T09:28:29.873Z,21.30
2022-09-12T09:33:36.018Z,21.90
2022-09-12T09:39:03.641Z,22.00
2022-09-12T09:44:15.015Z,21.10
2022-09-12T09:49:18.246Z,21.00
2022-09-12T09:54:35.566Z,21.00
2022-09-12T09:59:38.019Z,20.90
2022-09-12T10:04:57.849Z,21.10
2022-09-12T10:10:26.623Z,21.20
2022-09-12T10:15:33.757Z,20.60
2022-09-12T10:20:45.417Z,20.90
2022-09-12T10:26:01.555Z,21.90
2022-09-12T10:31:04.434Z,20.90
2022-09-12T10:36:07.011Z,20.80
2022-09-12T10:41:11.408Z,22.00
2022-09-12T10:46:19.642Z,21.60
2022-09-12T10:51:25.117Z,20.50
2022-09-12T10:56:39.483Z,21.30
2022-09-12T11:01:47.260Z,21.60
2022-09-12T11:06:57.648Z,21.10
2022-09-12T11:12:24.308Z,21.30
2022-09-12T11:17:53.862Z,21.30
2022-09-12T11:23:21.101Z,21.00
2022-09-12T11:28:38.641Z,21.20
2022-09-12T11:33:56.668Z,21.80
2022-09-12T11:39:20.697Z,21.30
2022-09-12T11:44:28.846Z,20.80
2022-09-12T11:49:40.597Z,20.00
2022-09-12T11:54:52.929Z,19.80
2022-09-12T12:00:21.371Z,19.60
2022-09-12T12:05:36.127Z,20.60
2022-09-12T12:10:41.791Z,21.50
2022-09-12T12:16:14.520Z,22.50
2022-09-12T12:21:20.059Z,22.80
2022-09-12T12:27:00.540Z,22.60
2022-09-12T12:32:02.856Z,22.90
2022-09-12T12:37:23.060Z,23.30
2022-09-12T12:42:34.530Z,23.50
2022-09-12T12:47:39.930Z,23.70
2022-09-12T12:52:45.306Z,23.90
2022-09-12T12:57:50.976Z,24.00
2022-09-12T13:03:06.674Z,24.00
2022-09-12T13:08:11.280Z,24.10
2022-09-12T13:13:25.075Z,23.50
2022-09-12T13:18:49.129Z,23.60
2022-09-12T13:24:04.255Z,23.60
2022-09-12T13:29:10.803Z,24.00
2022-09-12T13:34:22.636Z,23.60
2022-09-12T13:39:27.596Z,23.70
2022-09-12T13:44:32.917Z,23.90
2022-09-12T13:49:40.090Z,23.80
2022-09-12T13:59:47.750Z,19.60
2022-09-12T14:05:11.438Z,19.70
2022-09-12T14:10:20.830Z,22.00
2022-09-12T14:15:30.232Z,22.90
2022-09-12T14:20:37.232Z,23.20
2022-09-12T14:25:41.456Z,23.10
2022-09-12T14:30:58.675Z,22.70
2022-09-12T14:36:18.515Z,22.80
2022-09-12T14:41:26.135Z,22.30
2022-09-12T14:46:28.601Z,22.20
2022-09-12T14:51:38.313Z,22.50
2022-09-12T14:56:53.833Z,22.50
2022-09-12T15:02:20.489Z,20.10
2022-09-12T15:07:28.704Z,20.50
2022-09-12T15:12:31.237Z,22.70
2022-09-12T15:17:33.568Z,23.30
2022-09-12T15:22:37.725Z,23.40
2022-09-12T15:27:43.309Z,20.50
2022-09-12T15:32:46.343Z,22.20
2022-09-12T15:37:49.825Z,20.00
2022-09-12T15:42:52.748Z,19.70
2022-09-12T15:47:55.729Z,21.20
2022-09-12T15:52:58.805Z,19.80
2022-09-12T15:58:06.273Z,19.40
2022-09-12T16:21:46.710Z,21.70
2022-09-12T16:26:49.234Z,22.40
2022-09-12T16:31:51.897Z,22.70
2022-09-12T16:36:54.306Z,22.90
2022-09-12T16:41:56.722Z,22.60
2022-09-12T16:47:00.337Z,22.50
2022-09-12T16:52:03.193Z,22.60
2022-09-12T16:57:06.609Z,22.60
2022-09-12T17:02:13.705Z,22.80
2022-09-12T17:07:16.420Z,22.80
2022-09-12T17:12:18.916Z,22.80
2022-09-12T17:17:21.348Z,22.90
2022-09-12T17:22:23.773Z,22.80
2022-09-12T17:27:26.520Z,22.70
2022-09-12T17:32:29.546Z,22.70
2022-09-12T17:37:32.574Z,22.60
2022-09-12T17:42:36.574Z,22.60
2022-09-12T17:47:40.291Z,22.50
2022-09-12T17:52:43.069Z,22.50
2022-09-12T17:57:45.923Z,22.40
2022-09-12T18:02:50.114Z,22.40
2022-09-12T18:07:52.947Z,22.30
2022-09-12T18:12:55.664Z,22.30
2022-09-12T18:17:58.505Z,22.30
2022-09-12T18:23:01.554Z,22.30
2022-09-12T18:28:09.018Z,22.20
2022-09-12T18:33:11.956Z,22.20
2022-09-12T18:38:14.768Z,22.20
2022-09-12T18:43:17.482Z,22.20
2022-09-12T18:48:20.047Z,22.20
2022-09-12T18:53:22.806Z,22.10
2022-09-12T18:58:25.588Z,22.10
2022-09-12T19:03:28.395Z,22.10
2022-09-12T19:08:31.231Z,22.00
2022-09-12T19:13:37.253Z,22.00
2022-09-12T19:18:40.654Z,22.00
2022-09-12T19:23:43.568Z,22.00
2022-09-12T19:28:46.998Z,22.00
2022-09-12T19:33:50.385Z,21.90
2022-09-12T19:38:53.199Z,21.90
2022-09-12T19:43:56.655Z,21.90
2022-09-12T19:48:59.151Z,21.90
2022-09-12T19:54:01.661Z,21.90
2022-09-12T19:59:04.283Z,21.90
2022-09-12T20:04:06.945Z,21.90
2022-09-12T20:09:09.423Z,21.40
2022-09-12T20:14:11.755Z,21.60
2022-09-12T20:19:14.229Z,21.80
2022-09-12T20:24:16.655Z,21.80
2022-09-12T20:29:19.026Z,21.80
2022-09-12T20:34:21.726Z,21.70
2022-09-12T20:39:24.493Z,21.70
2022-09-12T20:44:27.632Z,21.70
2022-09-12T20:49:30.093Z,21.70
2022-09-12T20:54:32.580Z,21.70
2022-09-12T20:59:35.286Z,21.70
2022-09-12T21:04:37.774Z,21.70
2022-09-12T21:09:40.126Z,21.70
2022-09-12T21:14:42.495Z,21.60
2022-09-12T21:19:45.111Z,21.60
2022-09-12T21:24:47.812Z,21.60
2022-09-12T21:29:50.606Z,21.60
2022-09-12T21:34:52.958Z,21.50
2022-09-12T21:39:55.389Z,21.60
2022-09-12T21:44:57.830Z,21.50
2022-09-12T21:50:00.275Z,21.60
2022-09-12T21:55:07.214Z,21.60
2022-09-12T22:00:15.755Z,21.50
2022-09-12T22:05:21.349Z,21.50
2022-09-12T22:10:23.790Z,21.50
2022-09-12T22:15:41.636Z,21.40
2022-09-12T22:20:44.088Z,21.50
2022-09-12T22:25:47.091Z,21.50
2022-09-12T22:30:49.622Z,21.40
2022-09-12T22:35:52.114Z,21.40
2022-09-12T22:40:54.511Z,21.40
2022-09-12T22:45:56.954Z,21.40
2022-09-12T22:50:59.871Z,21.30
2022-09-12T22:56:02.754Z,21.30
2022-09-12T23:01:06.365Z,21.30
2022-09-12T23:06:10.078Z,21.30
2022-09-12T23:11:14.873Z,21.40
2022-09-12T23:16:23.002Z,21.30
2022-09-12T23:21:25.468Z,21.20
2022-09-12T23:26:28.419Z,21.30
2022-09-12T23:31:32.522Z,21.20
2022-09-12T23:36:35.072Z,21.20
2022-09-12T23:41:38.184Z,21.20
2022-09-12T23:46:40.565Z,21.20
2022-09-12T23:51:42.986Z,21.10
2022-09-12T23:56:46.134Z,21.10
